sensor_id;sensor_type;location;lat;lon;timestamp;P1;durP1;ratioP1;P2;durP2;ratioP2
19535;SDS011;9913;51.168;4.124;2023-02-02T00:02:10;12.73;;;3.43;;
19535;SDS011;9913;51.168;4.124;2023-02-02T00:04:38;13.23;;;2.93;;
19535;SDS011;9913;51.168;4.124;2023-02-02T00:07:07;11.57;;;3.37;;
19535;SDS011;9913;51.168;4.124;2023-02-02T00:09:36;7.77;;;2.90;;
19535;SDS011;9913;51.168;4.124;2023-02-02T00:12:04;12.40;;;2.80;;
19535;SDS011;9913;51.168;4.124;2023-02-02T00:14:33;10.47;;;3.20;;
19535;SDS011;9913;51.168;4.124;2023-02-02T00:17:02;12.67;;;2.90;;
19535;SDS011;9913;51.168;4.124;2023-02-02T00:19:30;14.37;;;3.93;;
19535;SDS011;9913;51.168;4.124;2023-02-02T00:21:59;14.03;;;3.60;;
19535;SDS011;9913;51.168;4.124;2023-02-02T00:24:27;11.73;;;3.67;;
19535;SDS011;9913;51.168;4.124;2023-02-02T00:26:56;15.90;;;3.57;;
19535;SDS011;9913;51.168;4.124;2023-02-02T00:29:27;17.50;;;3.70;;
19535;SDS011;9913;51.168;4.124;2023-02-02T00:31:57;10.93;;;2.70;;
19535;SDS011;9913;51.168;4.124;2023-02-02T00:34:26;17.07;;;3.87;;
19535;SDS011;9913;51.168;4.124;2023-02-02T00:36:55;14.57;;;3.83;;
19535;SDS011;9913;51.168;4.124;2023-02-02T00:39:23;14.93;;;3.40;;
19535;SDS011;9913;51.168;4.124;2023-02-02T00:41:53;10.70;;;3.53;;
19535;SDS011;9913;51.168;4.124;2023-02-02T00:44:22;13.50;;;3.50;;
19535;SDS011;9913;51.168;4.124;2023-02-02T00:47:07;14.40;;;3.20;;
19535;SDS011;9913;51.168;4.124;2023-02-02T00:49:38;15.07;;;3.23;;
19535;SDS011;9913;51.168;4.124;2023-02-02T00:52:06;11.17;;;3.30;;
19535;SDS011;9913;51.168;4.124;2023-02-02T00:54:35;9.50;;;3.17;;
19535;SDS011;9913;51.168;4.124;2023-02-02T00:57:03;14.70;;;3.63;;
19535;SDS011;9913;51.168;4.124;2023-02-02T00:59:31;12.97;;;2.87;;
19535;SDS011;9913;51.168;4.124;2023-02-02T01:02:00;10.83;;;3.17;;
19535;SDS011;9913;51.168;4.124;2023-02-02T01:04:28;14.43;;;3.20;;
19535;SDS011;9913;51.168;4.124;2023-02-02T01:06:58;13.07;;;3.00;;
19535;SDS011;9913;51.168;4.124;2023-02-02T01:09:26;11.03;;;2.70;;
19535;SDS011;9913;51.168;4.124;2023-02-02T01:11:55;11.43;;;3.27;;
19535;SDS011;9913;51.168;4.124;2023-02-02T01:14:24;13.30;;;3.63;;
19535;SDS011;9913;51.168;4.124;2023-02-02T01:16:54;12.20;;;3.27;;
19535;SDS011;9913;51.168;4.124;2023-02-02T01:19:22;12.23;;;3.07;;
19535;SDS011;9913;51.168;4.124;2023-02-02T01:21:51;11.10;;;3.40;;
19535;SDS011;9913;51.168;4.124;2023-02-02T01:24:21;10.93;;;3.03;;
19535;SDS011;9913;51.168;4.124;2023-02-02T01:26:49;15.17;;;3.60;;
19535;SDS011;9913;51.168;4.124;2023-02-02T01:29:17;15.37;;;3.37;;
19535;SDS011;9913;51.168;4.124;2023-02-02T01:31:46;15.90;;;3.03;;
19535;SDS011;9913;51.168;4.124;2023-02-02T01:34:15;14.87;;;3.50;;
19535;SDS011;9913;51.168;4.124;2023-02-02T01:36:43;10.20;;;2.80;;
19535;SDS011;9913;51.168;4.124;2023-02-02T01:39:12;13.23;;;3.07;;
19535;SDS011;9913;51.168;4.124;2023-02-02T01:41:41;10.47;;;2.60;;
19535;SDS011;9913;51.168;4.124;2023-02-02T01:47:16;14.20;;;3.40;;
19535;SDS011;9913;51.168;4.124;2023-02-02T01:49:46;9.83;;;3.23;;
19535;SDS011;9913;51.168;4.124;2023-02-02T01:52:16;10.80;;;3.23;;
19535;SDS011;9913;51.168;4.124;2023-02-02T01:54:48;14.27;;;3.17;;
19535;SDS011;9913;51.168;4.124;2023-02-02T01:57:22;14.13;;;3.20;;
19535;SDS011;9913;51.168;4.124;2023-02-02T01:59:53;17.80;;;5.20;;
19535;SDS011;9913;51.168;4.124;2023-02-02T02:02:23;16.20;;;3.47;;
19535;SDS011;9913;51.168;4.124;2023-02-02T02:04:54;18.47;;;4.00;;
19535;SDS011;9913;51.168;4.124;2023-02-02T02:07:23;15.77;;;3.77;;
19535;SDS011;9913;51.168;4.124;2023-02-02T02:09:52;16.57;;;3.70;;
19535;SDS011;9913;51.168;4.124;2023-02-02T02:12:21;13.90;;;3.80;;
19535;SDS011;9913;51.168;4.124;2023-02-02T02:14:50;10.70;;;3.27;;
19535;SDS011;9913;51.168;4.124;2023-02-02T02:17:40;14.07;;;4.20;;
19535;SDS011;9913;51.168;4.124;2023-02-02T02:20:31;14.10;;;3.63;;
19535;SDS011;9913;51.168;4.124;2023-02-02T02:26:56;12.03;;;4.17;;
19535;SDS011;9913;51.168;4.124;2023-02-02T02:30:02;18.13;;;4.30;;
19535;SDS011;9913;51.168;4.124;2023-02-02T02:32:41;16.40;;;3.87;;
19535;SDS011;9913;51.168;4.124;2023-02-02T02:35:15;20.97;;;6.33;;
19535;SDS011;9913;51.168;4.124;2023-02-02T02:37:53;12.67;;;4.23;;
19535;SDS011;9913;51.168;4.124;2023-02-02T02:40:28;24.60;;;5.00;;
19535;SDS011;9913;51.168;4.124;2023-02-02T02:43:04;18.37;;;4.47;;
19535;SDS011;9913;51.168;4.124;2023-02-02T02:45:36;18.13;;;4.67;;
19535;SDS011;9913;51.168;4.124;2023-02-02T02:48:08;12.10;;;4.03;;
19535;SDS011;9913;51.168;4.124;2023-02-02T02:50:37;15.77;;;3.93;;
19535;SDS011;9913;51.168;4.124;2023-02-02T02:53:07;17.80;;;4.30;;
19535;SDS011;9913;51.168;4.124;2023-02-02T02:55:41;15.00;;;4.27;;
19535;SDS011;9913;51.168;4.124;2023-02-02T02:58:17;14.63;;;3.80;;
19535;SDS011;9913;51.168;4.124;2023-02-02T03:00:52;13.17;;;3.77;;
19535;SDS011;9913;51.168;4.124;2023-02-02T03:03:32;13.70;;;3.73;;
19535;SDS011;9913;51.168;4.124;2023-02-02T03:06:11;16.13;;;3.47;;
19535;SDS011;9913;51.168;4.124;2023-02-02T03:08:47;13.80;;;3.80;;
19535;SDS011;9913;51.168;4.124;2023-02-02T03:11:19;15.80;;;4.27;;
19535;SDS011;9913;51.168;4.124;2023-02-02T03:13:48;23.17;;;4.20;;
19535;SDS011;9913;51.168;4.124;2023-02-02T03:16:17;12.50;;;3.63;;
19535;SDS011;9913;51.168;4.124;2023-02-02T03:18:46;15.37;;;3.50;;
19535;SDS011;9913;51.168;4.124;2023-02-02T03:21:14;13.93;;;3.90;;
19535;SDS011;9913;51.168;4.124;2023-02-02T03:23:43;13.80;;;4.67;;
19535;SDS011;9913;51.168;4.124;2023-02-02T03:26:11;15.07;;;4.03;;
19535;SDS011;9913;51.168;4.124;2023-02-02T03:28:39;11.27;;;4.27;;
19535;SDS011;9913;51.168;4.124;2023-02-02T03:31:08;15.07;;;4.70;;
19535;SDS011;9913;51.168;4.124;2023-02-02T03:33:36;19.40;;;4.17;;
19535;SDS011;9913;51.168;4.124;2023-02-02T03:36:07;13.60;;;4.17;;
19535;SDS011;9913;51.168;4.124;2023-02-02T03:38:36;12.33;;;4.30;;
19535;SDS011;9913;51.168;4.124;2023-02-02T03:41:04;13.47;;;4.03;;
19535;SDS011;9913;51.168;4.124;2023-02-02T03:43:33;12.27;;;3.53;;
19535;SDS011;9913;51.168;4.124;2023-02-02T03:46:01;13.00;;;3.90;;
19535;SDS011;9913;51.168;4.124;2023-02-02T03:48:33;12.13;;;3.43;;
19535;SDS011;9913;51.168;4.124;2023-02-02T03:51:04;14.07;;;3.27;;
19535;SDS011;9913;51.168;4.124;2023-02-02T03:53:36;17.90;;;5.23;;
19535;SDS011;9913;51.168;4.124;2023-02-02T03:56:04;13.50;;;3.73;;
19535;SDS011;9913;51.168;4.124;2023-02-02T03:58:33;9.53;;;3.30;;
19535;SDS011;9913;51.168;4.124;2023-02-02T04:01:02;12.70;;;3.67;;
19535;SDS011;9913;51.168;4.124;2023-02-02T04:03:31;11.80;;;3.53;;
19535;SDS011;9913;51.168;4.124;2023-02-02T04:05:59;12.93;;;3.67;;
19535;SDS011;9913;51.168;4.124;2023-02-02T04:08:29;8.67;;;3.50;;
19535;SDS011;9913;51.168;4.124;2023-02-02T04:10:57;16.90;;;3.23;;
19535;SDS011;9913;51.168;4.124;2023-02-02T04:13:26;13.97;;;4.57;;
19535;SDS011;9913;51.168;4.124;2023-02-02T04:15:57;10.17;;;3.20;;
19535;SDS011;9913;51.168;4.124;2023-02-02T04:18:27;15.47;;;3.47;;
19535;SDS011;9913;51.168;4.124;2023-02-02T04:20:56;12.50;;;4.53;;
19535;SDS011;9913;51.168;4.124;2023-02-02T04:23:25;14.63;;;3.67;;
19535;SDS011;9913;51.168;4.124;2023-02-02T04:25:56;11.80;;;3.40;;
19535;SDS011;9913;51.168;4.124;2023-02-02T04:28:25;12.17;;;3.17;;
19535;SDS011;9913;51.168;4.124;2023-02-02T04:30:55;15.53;;;4.43;;
19535;SDS011;9913;51.168;4.124;2023-02-02T04:33:24;12.87;;;3.73;;
19535;SDS011;9913;51.168;4.124;2023-02-02T04:35:54;13.37;;;4.27;;
19535;SDS011;9913;51.168;4.124;2023-02-02T04:38:22;15.53;;;4.17;;
19535;SDS011;9913;51.168;4.124;2023-02-02T04:40:51;12.43;;;3.63;;
19535;SDS011;9913;51.168;4.124;2023-02-02T04:43:20;15.60;;;3.90;;
19535;SDS011;9913;51.168;4.124;2023-02-02T04:45:53;11.53;;;3.73;;
19535;SDS011;9913;51.168;4.124;2023-02-02T04:48:22;10.77;;;3.43;;
19535;SDS011;9913;51.168;4.124;2023-02-02T04:50:50;16.80;;;4.70;;
19535;SDS011;9913;51.168;4.124;2023-02-02T04:53:24;8.70;;;3.03;;
19535;SDS011;9913;51.168;4.124;2023-02-02T04:55:53;11.73;;;3.53;;
19535;SDS011;9913;51.168;4.124;2023-02-02T04:58:22;13.10;;;4.67;;
19535;SDS011;9913;51.168;4.124;2023-02-02T05:00:50;15.83;;;3.70;;
19535;SDS011;9913;51.168;4.124;2023-02-02T05:03:19;14.53;;;4.23;;
19535;SDS011;9913;51.168;4.124;2023-02-02T05:05:47;10.50;;;3.50;;
19535;SDS011;9913;51.168;4.124;2023-02-02T05:08:15;15.00;;;4.80;;
19535;SDS011;9913;51.168;4.124;2023-02-02T05:10:44;12.10;;;4.27;;
19535;SDS011;9913;51.168;4.124;2023-02-02T05:13:12;17.20;;;4.07;;
19535;SDS011;9913;51.168;4.124;2023-02-02T05:15:41;13.17;;;4.10;;
19535;SDS011;9913;51.168;4.124;2023-02-02T05:18:10;15.60;;;3.80;;
19535;SDS011;9913;51.168;4.124;2023-02-02T05:20:38;12.07;;;3.90;;
19535;SDS011;9913;51.168;4.124;2023-02-02T05:23:06;20.20;;;4.10;;
19535;SDS011;9913;51.168;4.124;2023-02-02T05:25:35;11.83;;;4.17;;
19535;SDS011;9913;51.168;4.124;2023-02-02T05:28:03;12.23;;;4.37;;
19535;SDS011;9913;51.168;4.124;2023-02-02T05:30:34;12.80;;;4.30;;
19535;SDS011;9913;51.168;4.124;2023-02-02T05:33:06;15.23;;;4.27;;
19535;SDS011;9913;51.168;4.124;2023-02-02T05:35:37;11.30;;;4.10;;
19535;SDS011;9913;51.168;4.124;2023-02-02T05:38:05;11.20;;;4.53;;
19535;SDS011;9913;51.168;4.124;2023-02-02T05:40:34;13.77;;;3.60;;
19535;SDS011;9913;51.168;4.124;2023-02-02T05:43:02;11.73;;;4.13;;
19535;SDS011;9913;51.168;4.124;2023-02-02T05:45:30;15.10;;;4.83;;
19535;SDS011;9913;51.168;4.124;2023-02-02T05:47:59;16.33;;;4.73;;
19535;SDS011;9913;51.168;4.124;2023-02-02T05:50:28;11.43;;;4.47;;
19535;SDS011;9913;51.168;4.124;2023-02-02T05:53:05;16.23;;;4.30;;
19535;SDS011;9913;51.168;4.124;2023-02-02T05:55:34;16.83;;;4.93;;
19535;SDS011;9913;51.168;4.124;2023-02-02T05:58:02;15.97;;;4.70;;
19535;SDS011;9913;51.168;4.124;2023-02-02T06:00:30;12.50;;;5.13;;
19535;SDS011;9913;51.168;4.124;2023-02-02T06:02:58;16.40;;;4.27;;
19535;SDS011;9913;51.168;4.124;2023-02-02T06:05:28;13.17;;;5.40;;
19535;SDS011;9913;51.168;4.124;2023-02-02T06:07:56;13.63;;;4.33;;
19535;SDS011;9913;51.168;4.124;2023-02-02T06:10:25;11.80;;;4.80;;
19535;SDS011;9913;51.168;4.124;2023-02-02T06:12:53;23.30;;;5.20;;
19535;SDS011;9913;51.168;4.124;2023-02-02T06:15:21;13.03;;;4.03;;
19535;SDS011;9913;51.168;4.124;2023-02-02T06:17:51;15.60;;;4.37;;
19535;SDS011;9913;51.168;4.124;2023-02-02T06:20:19;16.87;;;4.67;;
19535;SDS011;9913;51.168;4.124;2023-02-02T06:22:49;10.23;;;3.57;;
19535;SDS011;9913;51.168;4.124;2023-02-02T06:25:17;11.70;;;3.67;;
19535;SDS011;9913;51.168;4.124;2023-02-02T06:27:45;13.67;;;3.57;;
19535;SDS011;9913;51.168;4.124;2023-02-02T06:30:15;11.70;;;3.67;;
19535;SDS011;9913;51.168;4.124;2023-02-02T06:32:47;9.07;;;3.20;;
19535;SDS011;9913;51.168;4.124;2023-02-02T06:35:15;11.30;;;3.23;;
19535;SDS011;9913;51.168;4.124;2023-02-02T06:37:44;10.03;;;3.50;;
19535;SDS011;9913;51.168;4.124;2023-02-02T06:40:14;14.57;;;3.90;;
19535;SDS011;9913;51.168;4.124;2023-02-02T06:42:42;12.63;;;3.70;;
19535;SDS011;9913;51.168;4.124;2023-02-02T06:45:10;9.63;;;3.57;;
19535;SDS011;9913;51.168;4.124;2023-02-02T06:47:38;11.43;;;3.37;;
19535;SDS011;9913;51.168;4.124;2023-02-02T06:50:07;12.73;;;3.60;;
19535;SDS011;9913;51.168;4.124;2023-02-02T06:52:37;13.17;;;3.50;;
19535;SDS011;9913;51.168;4.124;2023-02-02T06:55:05;14.13;;;3.20;;
19535;SDS011;9913;51.168;4.124;2023-02-02T06:57:35;10.97;;;2.90;;
19535;SDS011;9913;51.168;4.124;2023-02-02T07:00:04;14.70;;;3.63;;
19535;SDS011;9913;51.168;4.124;2023-02-02T07:02:33;12.23;;;3.27;;
19535;SDS011;9913;51.168;4.124;2023-02-02T07:05:02;16.63;;;3.70;;
19535;SDS011;9913;51.168;4.124;2023-02-02T07:07:31;12.37;;;3.57;;
19535;SDS011;9913;51.168;4.124;2023-02-02T07:10:00;10.50;;;3.60;;
19535;SDS011;9913;51.168;4.124;2023-02-02T07:12:31;12.97;;;4.43;;
19535;SDS011;9913;51.168;4.124;2023-02-02T07:15:01;18.33;;;4.17;;
19535;SDS011;9913;51.168;4.124;2023-02-02T07:17:30;14.97;;;3.77;;
19535;SDS011;9913;51.168;4.124;2023-02-02T07:19:58;11.67;;;4.50;;
19535;SDS011;9913;51.168;4.124;2023-02-02T07:22:26;12.43;;;4.20;;
19535;SDS011;9913;51.168;4.124;2023-02-02T07:24:55;15.60;;;4.40;;
19535;SDS011;9913;51.168;4.124;2023-02-02T07:27:23;12.67;;;4.63;;
19535;SDS011;9913;51.168;4.124;2023-02-02T07:29:51;14.50;;;4.17;;
19535;SDS011;9913;51.168;4.124;2023-02-02T07:32:21;16.37;;;4.33;;
19535;SDS011;9913;51.168;4.124;2023-02-02T07:34:49;9.57;;;3.33;;
19535;SDS011;9913;51.168;4.124;2023-02-02T07:37:17;9.40;;;3.07;;
19535;SDS011;9913;51.168;4.124;2023-02-02T07:39:46;12.63;;;3.60;;
19535;SDS011;9913;51.168;4.124;2023-02-02T07:42:14;9.80;;;2.77;;
19535;SDS011;9913;51.168;4.124;2023-02-02T07:44:42;10.20;;;3.10;;
19535;SDS011;9913;51.168;4.124;2023-02-02T07:47:13;10.10;;;3.70;;
19535;SDS011;9913;51.168;4.124;2023-02-02T07:49:44;12.03;;;3.10;;
19535;SDS011;9913;51.168;4.124;2023-02-02T07:52:12;10.77;;;2.80;;
19535;SDS011;9913;51.168;4.124;2023-02-02T07:54:41;9.70;;;3.40;;
19535;SDS011;9913;51.168;4.124;2023-02-02T07:57:09;8.97;;;2.70;;
19535;SDS011;9913;51.168;4.124;2023-02-02T07:59:39;13.20;;;2.80;;
19535;SDS011;9913;51.168;4.124;2023-02-02T08:02:07;8.63;;;2.87;;
19535;SDS011;9913;51.168;4.124;2023-02-02T08:04:37;10.17;;;3.63;;
19535;SDS011;9913;51.168;4.124;2023-02-02T08:07:06;10.40;;;2.30;;
19535;SDS011;9913;51.168;4.124;2023-02-02T08:09:36;8.43;;;2.47;;
19535;SDS011;9913;51.168;4.124;2023-02-02T08:12:04;12.47;;;2.70;;
19535;SDS011;9913;51.168;4.124;2023-02-02T08:14:32;10.70;;;2.70;;
19535;SDS011;9913;51.168;4.124;2023-02-02T08:17:01;9.13;;;3.63;;
19535;SDS011;9913;51.168;4.124;2023-02-02T08:19:29;11.33;;;3.70;;
19535;SDS011;9913;51.168;4.124;2023-02-02T08:21:58;6.77;;;2.50;;
19535;SDS011;9913;51.168;4.124;2023-02-02T08:24:27;9.10;;;2.83;;
19535;SDS011;9913;51.168;4.124;2023-02-02T08:26:56;15.43;;;2.93;;
19535;SDS011;9913;51.168;4.124;2023-02-02T08:29:24;9.83;;;3.00;;
19535;SDS011;9913;51.168;4.124;2023-02-02T08:31:52;9.53;;;2.70;;
19535;SDS011;9913;51.168;4.124;2023-02-02T08:34:20;12.20;;;3.33;;
19535;SDS011;9913;51.168;4.124;2023-02-02T08:36:49;13.33;;;3.30;;
19535;SDS011;9913;51.168;4.124;2023-02-02T08:39:17;8.57;;;3.10;;
19535;SDS011;9913;51.168;4.124;2023-02-02T08:41:47;12.80;;;3.30;;
19535;SDS011;9913;51.168;4.124;2023-02-02T08:44:16;11.60;;;3.23;;
19535;SDS011;9913;51.168;4.124;2023-02-02T08:46:45;8.77;;;3.40;;
19535;SDS011;9913;51.168;4.124;2023-02-02T08:49:13;8.33;;;3.20;;
19535;SDS011;9913;51.168;4.124;2023-02-02T08:51:41;11.50;;;3.10;;
19535;SDS011;9913;51.168;4.124;2023-02-02T08:54:11;10.40;;;3.20;;
19535;SDS011;9913;51.168;4.124;2023-02-02T08:56:39;15.20;;;3.93;;
19535;SDS011;9913;51.168;4.124;2023-02-02T08:59:09;6.90;;;2.93;;
19535;SDS011;9913;51.168;4.124;2023-02-02T09:01:37;6.87;;;2.83;;
19535;SDS011;9913;51.168;4.124;2023-02-02T09:04:06;10.77;;;3.30;;
19535;SDS011;9913;51.168;4.124;2023-02-02T09:06:37;15.10;;;3.60;;
19535;SDS011;9913;51.168;4.124;2023-02-02T09:09:06;13.03;;;3.40;;
19535;SDS011;9913;51.168;4.124;2023-02-02T09:11:37;11.23;;;3.37;;
19535;SDS011;9913;51.168;4.124;2023-02-02T09:14:05;15.73;;;3.27;;
19535;SDS011;9913;51.168;4.124;2023-02-02T09:16:36;15.47;;;3.23;;
19535;SDS011;9913;51.168;4.124;2023-02-02T09:19:04;10.30;;;3.57;;
19535;SDS011;9913;51.168;4.124;2023-02-02T09:21:33;11.33;;;3.30;;
19535;SDS011;9913;51.168;4.124;2023-02-02T09:24:06;8.63;;;3.03;;
19535;SDS011;9913;51.168;4.124;2023-02-02T09:26:36;12.23;;;3.47;;
19535;SDS011;9913;51.168;4.124;2023-02-02T09:29:07;10.10;;;3.37;;
19535;SDS011;9913;51.168;4.124;2023-02-02T09:31:43;9.57;;;3.27;;
19535;SDS011;9913;51.168;4.124;2023-02-02T09:34:13;13.57;;;3.33;;
19535;SDS011;9913;51.168;4.124;2023-02-02T09:36:42;10.30;;;3.17;;
19535;SDS011;9913;51.168;4.124;2023-02-02T09:39:11;9.07;;;3.00;;
19535;SDS011;9913;51.168;4.124;2023-02-02T09:41:48;11.73;;;3.10;;
19535;SDS011;9913;51.168;4.124;2023-02-02T09:47:53;9.77;;;2.87;;
19535;SDS011;9913;51.168;4.124;2023-02-02T09:50:33;11.00;;;3.37;;
19535;SDS011;9913;51.168;4.124;2023-02-02T09:53:15;10.70;;;3.00;;
19535;SDS011;9913;51.168;4.124;2023-02-02T09:55:49;12.00;;;3.47;;
19535;SDS011;9913;51.168;4.124;2023-02-02T09:58:19;10.37;;;2.77;;
19535;SDS011;9913;51.168;4.124;2023-02-02T10:00:53;10.67;;;3.13;;
19535;SDS011;9913;51.168;4.124;2023-02-02T10:03:29;12.13;;;4.17;;
19535;SDS011;9913;51.168;4.124;2023-02-02T10:06:04;14.67;;;4.63;;
19535;SDS011;9913;51.168;4.124;2023-02-02T10:08:41;13.00;;;3.73;;
19535;SDS011;9913;51.168;4.124;2023-02-02T10:11:20;7.37;;;2.90;;
19535;SDS011;9913;51.168;4.124;2023-02-02T10:13:57;10.57;;;3.17;;
19535;SDS011;9913;51.168;4.124;2023-02-02T10:16:29;14.20;;;3.13;;
19535;SDS011;9913;51.168;4.124;2023-02-02T10:19:02;11.17;;;2.97;;
19535;SDS011;9913;51.168;4.124;2023-02-02T10:21:33;8.13;;;2.87;;
19535;SDS011;9913;51.168;4.124;2023-02-02T10:24:09;14.20;;;3.87;;
19535;SDS011;9913;51.168;4.124;2023-02-02T10:26:45;10.10;;;3.20;;
19535;SDS011;9913;51.168;4.124;2023-02-02T10:29:16;11.13;;;3.00;;
19535;SDS011;9913;51.168;4.124;2023-02-02T10:31:53;11.67;;;3.60;;
19535;SDS011;9913;51.168;4.124;2023-02-02T10:34:34;9.13;;;3.33;;
19535;SDS011;9913;51.168;4.124;2023-02-02T10:37:13;10.83;;;2.97;;
19535;SDS011;9913;51.168;4.124;2023-02-02T10:42:44;8.20;;;2.70;;
19535;SDS011;9913;51.168;4.124;2023-02-02T10:45:56;7.63;;;2.70;;
19535;SDS011;9913;51.168;4.124;2023-02-02T10:48:26;14.23;;;3.67;;
19535;SDS011;9913;51.168;4.124;2023-02-02T10:51:03;10.37;;;3.13;;
19535;SDS011;9913;51.168;4.124;2023-02-02T10:53:38;10.57;;;2.97;;
19535;SDS011;9913;51.168;4.124;2023-02-02T10:56:07;7.77;;;2.77;;
19535;SDS011;9913;51.168;4.124;2023-02-02T10:58:42;10.23;;;2.20;;
19535;SDS011;9913;51.168;4.124;2023-02-02T11:01:13;10.83;;;4.07;;
19535;SDS011;9913;51.168;4.124;2023-02-02T11:03:43;11.90;;;2.70;;
19535;SDS011;9913;51.168;4.124;2023-02-02T11:06:13;9.20;;;3.10;;
19535;SDS011;9913;51.168;4.124;2023-02-02T11:09:00;8.87;;;2.87;;
19535;SDS011;9913;51.168;4.124;2023-02-02T11:11:31;15.50;;;4.20;;
19535;SDS011;9913;51.168;4.124;2023-02-02T11:14:10;8.03;;;2.30;;
19535;SDS011;9913;51.168;4.124;2023-02-02T11:16:42;7.97;;;3.20;;
19535;SDS011;9913;51.168;4.124;2023-02-02T11:19:21;5.93;;;2.47;;
19535;SDS011;9913;51.168;4.124;2023-02-02T11:21:56;9.77;;;2.70;;
19535;SDS011;9913;51.168;4.124;2023-02-02T11:24:26;6.43;;;2.20;;
19535;SDS011;9913;51.168;4.124;2023-02-02T11:26:56;8.93;;;2.10;;
19535;SDS011;9913;51.168;4.124;2023-02-02T11:29:28;7.17;;;2.10;;
19535;SDS011;9913;51.168;4.124;2023-02-02T11:34:46;9.20;;;3.00;;
19535;SDS011;9913;51.168;4.124;2023-02-02T11:37:19;9.10;;;2.57;;
19535;SDS011;9913;51.168;4.124;2023-02-02T11:39:49;7.90;;;2.77;;
19535;SDS011;9913;51.168;4.124;2023-02-02T11:42:19;8.40;;;2.27;;
19535;SDS011;9913;51.168;4.124;2023-02-02T11:44:50;7.10;;;2.37;;
19535;SDS011;9913;51.168;4.124;2023-02-02T11:47:20;8.63;;;3.10;;
19535;SDS011;9913;51.168;4.124;2023-02-02T11:49:53;6.07;;;2.47;;
19535;SDS011;9913;51.168;4.124;2023-02-02T11:52:27;7.53;;;2.43;;
19535;SDS011;9913;51.168;4.124;2023-02-02T11:54:58;7.00;;;2.57;;
19535;SDS011;9913;51.168;4.124;2023-02-02T11:57:29;8.60;;;2.70;;
19535;SDS011;9913;51.168;4.124;2023-02-02T12:00:14;8.93;;;2.70;;
19535;SDS011;9913;51.168;4.124;2023-02-02T12:02:44;7.17;;;2.00;;
19535;SDS011;9913;51.168;4.124;2023-02-02T12:05:25;6.90;;;2.00;;
19535;SDS011;9913;51.168;4.124;2023-02-02T12:08:01;6.53;;;2.27;;
19535;SDS011;9913;51.168;4.124;2023-02-02T12:10:31;10.63;;;2.50;;
19535;SDS011;9913;51.168;4.124;2023-02-02T12:13:07;10.53;;;2.20;;
19535;SDS011;9913;51.168;4.124;2023-02-02T12:15:43;8.40;;;2.23;;
19535;SDS011;9913;51.168;4.124;2023-02-02T12:18:20;7.87;;;2.00;;
19535;SDS011;9913;51.168;4.124;2023-02-02T12:21:04;8.87;;;2.60;;
19535;SDS011;9913;51.168;4.124;2023-02-02T12:23:41;6.43;;;2.27;;
19535;SDS011;9913;51.168;4.124;2023-02-02T12:26:19;8.03;;;2.33;;
19535;SDS011;9913;51.168;4.124;2023-02-02T12:29:02;8.90;;;2.80;;
19535;SDS011;9913;51.168;4.124;2023-02-02T12:31:45;8.17;;;3.00;;
19535;SDS011;9913;51.168;4.124;2023-02-02T12:34:28;3.93;;;2.07;;
19535;SDS011;9913;51.168;4.124;2023-02-02T12:37:06;6.33;;;2.47;;
19535;SDS011;9913;51.168;4.124;2023-02-02T12:39:49;8.00;;;2.50;;
19535;SDS011;9913;51.168;4.124;2023-02-02T12:42:40;7.43;;;2.00;;
19535;SDS011;9913;51.168;4.124;2023-02-02T12:45:30;6.50;;;2.43;;
19535;SDS011;9913;51.168;4.124;2023-02-02T12:48:17;7.70;;;1.60;;
19535;SDS011;9913;51.168;4.124;2023-02-02T12:51:01;7.97;;;1.70;;
19535;SDS011;9913;51.168;4.124;2023-02-02T12:53:48;2.97;;;1.40;;
19535;SDS011;9913;51.168;4.124;2023-02-02T12:56:53;6.03;;;1.73;;
19535;SDS011;9913;51.168;4.124;2023-02-02T12:59:33;8.07;;;2.50;;
19535;SDS011;9913;51.168;4.124;2023-02-02T13:02:16;5.10;;;1.53;;
19535;SDS011;9913;51.168;4.124;2023-02-02T13:04:55;8.90;;;1.83;;
19535;SDS011;9913;51.168;4.124;2023-02-02T13:07:35;6.10;;;1.50;;
19535;SDS011;9913;51.168;4.124;2023-02-02T13:10:11;4.43;;;1.70;;
19535;SDS011;9913;51.168;4.124;2023-02-02T13:12:46;5.23;;;2.30;;
19535;SDS011;9913;51.168;4.124;2023-02-02T13:15:19;5.43;;;2.10;;
19535;SDS011;9913;51.168;4.124;2023-02-02T13:17:50;4.47;;;1.70;;
19535;SDS011;9913;51.168;4.124;2023-02-02T13:20:26;4.50;;;1.50;;
19535;SDS011;9913;51.168;4.124;2023-02-02T13:23:04;6.70;;;1.50;;
19535;SDS011;9913;51.168;4.124;2023-02-02T13:25:39;4.73;;;1.60;;
19535;SDS011;9913;51.168;4.124;2023-02-02T13:28:19;3.60;;;1.43;;
19535;SDS011;9913;51.168;4.124;2023-02-02T13:30:58;4.70;;;1.43;;
19535;SDS011;9913;51.168;4.124;2023-02-02T13:33:32;5.43;;;1.30;;
19535;SDS011;9913;51.168;4.124;2023-02-02T13:36:07;4.70;;;1.13;;
19535;SDS011;9913;51.168;4.124;2023-02-02T13:38:42;6.50;;;1.40;;
19535;SDS011;9913;51.168;4.124;2023-02-02T13:41:11;3.90;;;1.00;;
19535;SDS011;9913;51.168;4.124;2023-02-02T13:43:45;5.40;;;1.47;;
19535;SDS011;9913;51.168;4.124;2023-02-02T13:46:21;7.13;;;2.90;;
19535;SDS011;9913;51.168;4.124;2023-02-02T13:48:59;6.10;;;2.53;;
19535;SDS011;9913;51.168;4.124;2023-02-02T13:51:58;4.47;;;2.10;;
19535;SDS011;9913;51.168;4.124;2023-02-02T13:58:05;7.40;;;2.97;;
19535;SDS011;9913;51.168;4.124;2023-02-02T14:00:46;7.60;;;2.47;;
19535;SDS011;9913;51.168;4.124;2023-02-02T14:03:27;6.50;;;3.33;;
19535;SDS011;9913;51.168;4.124;2023-02-02T14:06:08;7.30;;;3.30;;
19535;SDS011;9913;51.168;4.124;2023-02-02T14:08:44;10.80;;;5.17;;
19535;SDS011;9913;51.168;4.124;2023-02-02T14:11:16;14.70;;;5.17;;
19535;SDS011;9913;51.168;4.124;2023-02-02T14:13:52;8.50;;;4.00;;
19535;SDS011;9913;51.168;4.124;2023-02-02T14:16:46;6.33;;;3.17;;
19535;SDS011;9913;51.168;4.124;2023-02-02T14:19:17;6.13;;;2.57;;
19535;SDS011;9913;51.168;4.124;2023-02-02T14:22:18;10.10;;;2.77;;
19535;SDS011;9913;51.168;4.124;2023-02-02T14:24:48;7.30;;;2.10;;
19535;SDS011;9913;51.168;4.124;2023-02-02T14:30:24;7.00;;;2.30;;
19535;SDS011;9913;51.168;4.124;2023-02-02T14:35:54;3.30;;;1.93;;
19535;SDS011;9913;51.168;4.124;2023-02-02T14:41:21;8.03;;;2.33;;
19535;SDS011;9913;51.168;4.124;2023-02-02T14:44:15;10.10;;;2.50;;
19535;SDS011;9913;51.168;4.124;2023-02-02T14:46:43;4.17;;;2.20;;
19535;SDS011;9913;51.168;4.124;2023-02-02T14:49:17;9.03;;;2.60;;
19535;SDS011;9913;51.168;4.124;2023-02-02T14:51:50;6.40;;;2.70;;
19535;SDS011;9913;51.168;4.124;2023-02-02T14:54:33;11.60;;;3.67;;
19535;SDS011;9913;51.168;4.124;2023-02-02T14:57:05;10.67;;;4.00;;
19535;SDS011;9913;51.168;4.124;2023-02-02T14:59:49;9.30;;;4.33;;
19535;SDS011;9913;51.168;4.124;2023-02-02T15:02:21;8.77;;;3.60;;
19535;SDS011;9913;51.168;4.124;2023-02-02T15:08:21;7.20;;;3.37;;
19535;SDS011;9913;51.168;4.124;2023-02-02T15:13:58;5.57;;;2.67;;
19535;SDS011;9913;51.168;4.124;2023-02-02T15:16:34;8.50;;;2.97;;
19535;SDS011;9913;51.168;4.124;2023-02-02T15:21:58;10.50;;;3.87;;
19535;SDS011;9913;51.168;4.124;2023-02-02T15:24:34;6.77;;;3.63;;
19535;SDS011;9913;51.168;4.124;2023-02-02T15:27:04;7.47;;;3.37;;
19535;SDS011;9913;51.168;4.124;2023-02-02T15:29:36;5.83;;;3.17;;
19535;SDS011;9913;51.168;4.124;2023-02-02T15:32:12;6.60;;;3.30;;
19535;SDS011;9913;51.168;4.124;2023-02-02T15:34:44;4.23;;;3.00;;
19535;SDS011;9913;51.168;4.124;2023-02-02T15:37:16;6.20;;;3.17;;
19535;SDS011;9913;51.168;4.124;2023-02-02T15:39:50;6.77;;;3.13;;
19535;SDS011;9913;51.168;4.124;2023-02-02T15:42:23;6.63;;;2.80;;
19535;SDS011;9913;51.168;4.124;2023-02-02T15:45:33;6.33;;;2.90;;
19535;SDS011;9913;51.168;4.124;2023-02-02T15:48:16;6.13;;;2.80;;
19535;SDS011;9913;51.168;4.124;2023-02-02T15:50:47;4.47;;;2.67;;
19535;SDS011;9913;51.168;4.124;2023-02-02T15:53:24;6.40;;;3.07;;
19535;SDS011;9913;51.168;4.124;2023-02-02T15:55:55;7.70;;;2.93;;
19535;SDS011;9913;51.168;4.124;2023-02-02T15:58:25;5.93;;;3.27;;
19535;SDS011;9913;51.168;4.124;2023-02-02T16:00:57;6.30;;;2.97;;
19535;SDS011;9913;51.168;4.124;2023-02-02T16:03:33;6.47;;;3.20;;